Time;durP1;ratioP1;P1;durP2;ratioP2;P2;SDS_P1;SDS_P2;PMS_P1;PMS_P2;Temp;Humidity;BMP_temperature;BMP_pressure;BME280_temperature;BME280_humidity;BME280_pressure;Samples;Min_cycle;Max_cycle;Signal;HPM_P1;HPM_P2
2022/08/17 00:01:12;;;;;;;4.63;2.38;;;22.40;50.30;;;;;;5055697;28;20025;-78
2022/08/17 00:03:40;;;;;;;3.65;2.42;;;22.40;50.70;;;;;;5037816;28;20055;-77
2022/08/17 00:06:13;;;;;;;10.30;3.35;;;22.40;51.00;;;;;;5055636;28;20044;-75
2022/08/17 00:08:42;;;;;;;4.57;2.38;;;22.40;51.50;;;;;;5055462;28;20032;-74
2022/08/17 00:11:19;;;;;;;4.45;2.42;;;22.30;51.00;;;;;;5055605;28;20063;-79
2022/08/17 00:13:48;;;;;;;6.85;2.55;;;22.30;50.80;;;;;;5038550;28;20029;-74
2022/08/17 00:16:23;;;;;;;4.65;2.33;;;22.30;51.00;;;;;;5035609;28;20442;-75
2022/08/17 00:18:49;;;;;;;8.95;2.83;;;22.30;51.00;;;;;;5035427;28;20108;-78
2022/08/17 00:21:18;;;;;;;3.92;2.25;;;22.30;51.00;;;;;;5035249;28;20060;-75
2022/08/17 00:23:45;;;;;;;7.10;2.38;;;22.30;51.50;;;;;;5035437;28;20368;-77
2022/08/17 00:26:12;;;;;;;4.35;2.40;;;22.30;51.60;;;;;;5035379;28;20594;-76
2022/08/17 00:28:39;;;;;;;3.20;2.88;;;22.30;52.20;;;;;;5035220;28;20100;-74
2022/08/17 00:31:10;;;;;;;2.97;2.47;;;22.30;52.60;;;;;;5033961;28;20018;-77
2022/08/17 00:33:37;;;;;;;3.75;2.88;;;22.30;52.70;;;;;;5035986;28;20425;-76
2022/08/17 00:36:04;;;;;;;5.45;2.17;;;22.30;52.70;;;;;;5035186;28;20021;-78
2022/08/17 00:38:31;;;;;;;3.05;2.08;;;22.30;52.30;;;;;;5017413;28;20047;-80
2022/08/17 00:41:07;;;;;;;3.58;2.30;;;22.30;52.10;;;;;;5035042;28;20025;-76
2022/08/17 00:43:33;;;;;;;2.65;2.15;;;22.30;52.40;;;;;;5054526;28;20071;-75
2022/08/17 00:46:01;;;;;;;2.95;2.40;;;22.30;52.60;;;;;;5054958;28;20431;-79
2022/08/17 00:48:27;;;;;;;3.28;2.30;;;22.30;52.30;;;;;;5054762;28;20367;-79
2022/08/17 00:51:02;;;;;;;4.07;2.08;;;22.30;52.00;;;;;;5035911;28;20107;-78
2022/08/17 00:53:29;;;;;;;3.17;2.10;;;22.30;52.20;;;;;;5054769;28;20025;-76
2022/08/17 00:55:58;;;;;;;2.60;2.10;;;22.20;51.90;;;;;;5052964;28;20031;-78
2022/08/17 00:58:24;;;;;;;2.40;2.00;;;22.20;51.70;;;;;;5054690;28;20033;-78
2022/08/17 01:00:51;;;;;;;5.22;2.25;;;22.20;51.90;;;;;;5054511;28;20025;-76
2022/08/17 01:03:24;;;;;;;4.65;2.55;;;22.20;51.80;;;;;;5054433;28;20029;-76
2022/08/17 01:05:52;;;;;;;3.33;2.50;;;22.10;52.00;;;;;;5036546;28;20053;-75
2022/08/17 01:08:23;;;;;;;3.22;2.20;;;22.10;52.00;;;;;;5054216;28;20035;-75
2022/08/17 01:10:52;;;;;;;4.05;2.67;;;22.00;51.90;;;;;;5054266;28;20017;-75
2022/08/17 01:13:20;;;;;;;3.25;2.42;;;22.00;51.90;;;;;;5041436;28;20111;-80
2022/08/17 01:15:51;;;;;;;3.40;2.60;;;22.00;52.30;;;;;;5034299;28;20100;-76
2022/08/17 01:18:16;;;;;;;5.30;2.25;;;21.90;52.40;;;;;;5034252;28;20029;-78
2022/08/17 01:20:50;;;;;;;3.03;2.20;;;21.90;52.40;;;;;;5033982;28;20051;-75
2022/08/17 01:23:18;;;;;;;;;;;21.80;52.40;;;;;;5034611;28;20033;-76
2022/08/17 01:25:45;;;;;;;2.97;2.13;;;21.80;51.60;;;;;;5034948;28;19909;-75
2022/08/17 01:28:11;;;;;;;2.80;2.40;;;21.80;52.00;;;;;;5034024;28;20021;-79
2022/08/17 01:30:37;;;;;;;4.13;2.35;;;21.80;52.20;;;;;;5034019;28;20543;-79
2022/08/17 01:33:03;;;;;;;3.08;2.17;;;21.80;52.30;;;;;;5034006;28;20022;-78
2022/08/17 01:35:28;;;;;;;3.40;2.53;;;21.70;52.10;;;;;;5033991;28;20471;-81
2022/08/17 01:37:54;;;;;;;3.38;2.22;;;21.70;52.40;;;;;;5033884;28;20025;-79
2022/08/17 01:40:31;;;;;;;2.88;2.17;;;21.70;52.50;;;;;;5032556;28;20037;-78
2022/08/17 01:43:06;;;;;;;3.60;2.63;;;21.60;52.60;;;;;;5032801;28;20431;-76
2022/08/17 01:45:37;;;;;;;2.67;2.10;;;21.60;52.80;;;;;;5032545;28;20025;-77
2022/08/17 01:48:03;;;;;;;4.22;2.67;;;21.60;53.10;;;;;;5033639;28;20479;-77
2022/08/17 01:50:33;;;;;;;3.42;2.47;;;21.50;53.20;;;;;;5033690;28;20036;-78
2022/08/17 01:53:04;;;;;;;3.75;2.53;;;21.50;53.00;;;;;;5015807;28;20045;-74
2022/08/17 01:55:39;;;;;;;3.67;2.20;;;21.50;53.00;;;;;;5040199;28;20025;-77
2022/08/17 01:58:08;;;;;;;2.55;2.20;;;21.50;53.00;;;;;;5053467;28;20021;-75
2022/08/17 02:00:37;;;;;;;4.70;2.60;;;21.50;53.30;;;;;;5053336;28;20025;-79
2022/08/17 02:03:03;;;;;;;4.53;2.60;;;21.40;53.40;;;;;;5053147;28;20009;-78
2022/08/17 02:05:29;;;;;;;4.45;2.55;;;21.40;53.60;;;;;;5053308;28;20358;-75
2022/08/17 02:07:55;;;;;;;5.57;2.42;;;21.30;53.50;;;;;;5035338;28;20029;-75
2022/08/17 02:10:22;;;;;;;4.32;2.45;;;21.30;53.50;;;;;;5053255;28;20504;-78
2022/08/17 02:12:49;;;;;;;4.78;2.60;;;21.30;53.50;;;;;;5013585;28;20017;-77
2022/08/17 02:15:14;;;;;;;2.95;2.53;;;21.30;53.60;;;;;;4995827;28;20037;-76
2022/08/17 02:17:41;;;;;;;3.65;2.53;;;21.30;53.70;;;;;;5013435;28;20021;-77
2022/08/17 02:20:08;;;;;;;5.72;2.92;;;21.20;53.70;;;;;;5013218;28;20068;-72
2022/08/17 02:22:37;;;;;;;3.25;2.80;;;21.20;53.70;;;;;;5013390;28;20479;-76
2022/08/17 02:25:08;;;;;;;12.65;2.80;;;21.20;53.80;;;;;;5019346;28;20517;-77
2022/08/17 02:27:35;;;;;;;3.15;2.63;;;21.10;54.10;;;;;;5052999;28;20021;-75
2022/08/17 02:30:04;;;;;;;7.20;2.90;;;21.10;53.90;;;;;;5052890;28;20025;-74
2022/08/17 02:32:29;;;;;;;3.42;2.75;;;21.10;53.90;;;;;;5052846;28;20017;-80
2022/08/17 02:34:59;;;;;;;3.25;2.75;;;21.10;54.10;;;;;;5052859;28;20021;-74
2022/08/17 02:37:26;;;;;;;3.38;2.42;;;21.00;54.20;;;;;;5035019;28;20025;-77
2022/08/17 02:39:55;;;;;;;5.40;2.92;;;21.00;54.00;;;;;;5051472;28;20028;-75
2022/08/17 02:42:33;;;;;;;4.32;2.53;;;21.00;54.10;;;;;;5052701;28;20446;-79
2022/08/17 02:45:00;;;;;;;5.75;2.85;;;21.00;54.50;;;;;;5052665;28;20047;-78
2022/08/17 02:47:26;;;;;;;5.65;2.83;;;21.00;54.50;;;;;;5052648;28;20098;-76
2022/08/17 02:49:53;;;;;;;3.20;2.83;;;21.00;54.60;;;;;;5034688;28;20029;-74
2022/08/17 02:52:19;;;;;;;3.55;2.80;;;21.00;54.40;;;;;;5052550;28;20096;-77
2022/08/17 02:54:45;;;;;;;8.80;3.22;;;21.00;54.50;;;;;;5051960;28;20025;-78
2022/08/17 02:57:11;;;;;;;6.68;3.35;;;21.10;55.10;;;;;;5014822;28;20026;-78
2022/08/17 02:59:38;;;;;;;10.77;3.67;;;21.00;55.30;;;;;;5014881;28;20360;-79
2022/08/17 03:02:06;;;;;;;9.38;3.38;;;21.00;55.20;;;;;;5032611;28;20104;-78
2022/08/17 03:04:32;;;;;;;8.23;3.70;;;21.00;55.00;;;;;;5032569;28;20103;-74
2022/08/17 03:06:58;;;;;;;10.15;2.97;;;21.00;54.90;;;;;;5031194;28;20057;-76
2022/08/17 03:09:24;;;;;;;12.32;3.92;;;21.00;54.90;;;;;;5032317;28;20031;-73
2022/08/17 03:11:50;;;;;;;6.15;3.10;;;21.00;55.20;;;;;;5032480;28;20022;-80
2022/08/17 03:14:16;;;;;;;15.77;3.65;;;21.00;55.10;;;;;;5033439;28;20024;-79
2022/08/17 03:16:42;;;;;;;6.30;3.38;;;21.00;55.00;;;;;;5036495;28;20022;-75
2022/08/17 03:19:08;;;;;;;5.07;3.17;;;21.00;54.90;;;;;;5036358;28;20047;-75
2022/08/17 03:21:34;;;;;;;3.90;3.28;;;21.00;55.00;;;;;;5036005;28;20078;-79
2022/08/17 03:24:00;;;;;;;7.32;3.15;;;21.00;55.80;;;;;;5036381;28;20029;-78
2022/08/17 03:26:26;;;;;;;4.78;3.15;;;20.90;55.20;;;;;;5049731;28;20060;-76
2022/08/17 03:28:52;;;;;;;4.97;3.22;;;20.90;55.40;;;;;;5038196;28;20060;-72
2022/08/17 03:31:19;;;;;;;4.70;3.20;;;20.90;55.80;;;;;;5056103;28;20498;-77
2022/08/17 03:33:45;;;;;;;4.13;2.80;;;20.90;56.00;;;;;;5038238;28;20032;-76
2022/08/17 03:36:11;;;;;;;5.47;3.72;;;20.80;56.40;;;;;;5055994;28;20104;-79
2022/08/17 03:38:37;;;;;;;4.97;3.13;;;20.80;56.40;;;;;;5056005;28;20386;-77
2022/08/17 03:41:04;;;;;;;4.88;3.25;;;20.80;56.20;;;;;;5055881;28;20100;-78
2022/08/17 03:43:33;;;;;;;5.10;3.33;;;20.80;56.40;;;;;;5055806;28;20145;-78
2022/08/17 03:57:05;;;;;;;4.43;3.20;;;20.70;56.10;;;;;;5038049;28;20383;-78
2022/08/17 03:59:31;;;;;;;;;;;20.70;56.10;;;;;;5036119;28;20466;-74
2022/08/17 04:02:02;;;;;;;4.72;3.20;;;20.70;55.60;;;;;;5035723;28;19911;-78
2022/08/17 04:04:28;;;;;;;6.32;3.10;;;20.70;55.90;;;;;;5035718;28;20013;-81
2022/08/17 04:06:54;;;;;;;7.15;2.75;;;20.70;56.10;;;;;;5035674;28;20026;-81
2022/08/17 04:09:20;;;;;;;5.88;3.10;;;20.70;56.20;;;;;;5035312;28;20148;-76
2022/08/17 04:11:46;;;;;;;4.07;2.85;;;20.70;56.30;;;;;;5035566;28;20364;-77
2022/08/17 04:14:12;;;;;;;7.00;3.30;;;20.60;56.40;;;;;;5017649;28;20076;-74
2022/08/17 04:16:38;;;;;;;4.72;2.92;;;20.60;56.60;;;;;;5035402;28;20029;-74
2022/08/17 04:19:04;;;;;;;8.23;3.22;;;20.60;56.60;;;;;;5035363;28;20014;-73
2022/08/17 04:21:30;;;;;;;7.68;3.17;;;20.60;56.60;;;;;;5017425;28;20057;-77
2022/08/17 04:23:57;;;;;;;6.65;3.17;;;20.70;56.70;;;;;;5017498;28;20022;-74
2022/08/17 04:26:23;;;;;;;5.72;2.90;;;20.70;56.80;;;;;;5047715;28;20103;-76
2022/08/17 04:28:48;;;;;;;6.32;3.28;;;20.70;56.70;;;;;;5037784;28;20076;-78
2022/08/17 04:31:15;;;;;;;7.35;3.47;;;20.70;56.70;;;;;;5035246;28;20049;-78
2022/08/17 04:33:42;;;;;;;3.60;3.03;;;20.70;57.40;;;;;;5035168;28;20025;-80
2022/08/17 04:36:10;;;;;;;8.68;2.75;;;20.80;56.90;;;;;;5034982;28;20100;-76
2022/08/17 04:38:38;;;;;;;3.95;2.70;;;20.80;56.80;;;;;;5035083;28;20109;-76
2022/08/17 04:43:53;;;;;;;6.85;2.97;;;20.90;57.10;;;;;;5035048;28;20057;-75
2022/08/17 04:46:27;;;;;;;10.43;2.92;;;20.90;57.00;;;;;;5034959;28;20028;-76
2022/08/17 04:48:55;;;;;;;5.13;3.38;;;20.90;57.00;;;;;;5034749;28;20026;-72
2022/08/17 04:51:28;;;;;;;7.55;3.13;;;21.00;57.00;;;;;;5016948;28;20057;-75
2022/08/17 04:54:01;;;;;;;6.53;3.30;;;21.00;57.10;;;;;;5034742;28;20029;-76
2022/08/17 04:56:28;;;;;;;7.20;2.85;;;21.10;57.10;;;;;;5047434;28;20056;-75
2022/08/17 04:58:59;;;;;;;8.20;3.53;;;21.10;57.00;;;;;;5054487;28;20021;-78
2022/08/17 05:01:28;;;;;;;4.72;3.30;;;21.20;57.10;;;;;;5054500;28;20482;-80
2022/08/17 05:03:57;;;;;;;7.20;3.10;;;21.20;57.50;;;;;;5036420;28;20037;-79
2022/08/17 05:06:25;;;;;;;6.10;3.67;;;21.30;57.00;;;;;;5051090;28;20391;-74
2022/08/17 05:08:51;;;;;;;4.60;2.85;;;21.30;56.90;;;;;;5032550;28;20083;-76
2022/08/17 05:11:17;;;;;;;4.60;3.08;;;21.40;56.90;;;;;;5032839;28;20033;-75
2022/08/17 05:13:43;;;;;;;4.95;3.15;;;21.50;56.80;;;;;;5034347;28;20033;-76
2022/08/17 05:16:10;;;;;;;5.32;3.47;;;21.50;56.70;;;;;;5034221;28;20092;-77
2022/08/17 05:18:37;;;;;;;4.47;3.35;;;21.50;56.50;;;;;;5033637;28;20371;-78
2022/08/17 05:21:04;;;;;;;4.32;3.05;;;21.60;56.50;;;;;;5033938;28;20042;-73
2022/08/17 05:23:29;;;;;;;7.22;3.10;;;21.70;56.40;;;;;;5016310;28;20033;-75
2022/08/17 05:25:57;;;;;;;5.65;3.30;;;21.70;56.20;;;;;;5032338;28;20083;-80
2022/08/17 05:28:26;;;;;;;7.15;4.22;;;21.70;56.20;;;;;;5034111;28;20026;-77
2022/08/17 05:30:52;;;;;;;8.10;3.83;;;21.80;56.20;;;;;;5037361;28;20021;-77
2022/08/17 05:33:22;;;;;;;6.65;3.95;;;21.90;56.00;;;;;;5033148;28;20044;-73
2022/08/17 05:35:49;;;;;;;4.78;3.38;;;21.90;55.80;;;;;;5033849;28;20401;-75
2022/08/17 05:38:17;;;;;;;9.85;3.90;;;22.00;55.70;;;;;;5033285;28;20056;-74
2022/08/17 05:40:44;;;;;;;8.30;3.58;;;22.00;55.70;;;;;;5015262;28;20021;-75
2022/08/17 05:43:20;;;;;;;7.05;3.72;;;22.10;55.60;;;;;;5036937;28;20021;-75
2022/08/17 05:46:05;;;;;;;8.65;3.38;;;22.10;55.40;;;;;;5034257;28;20028;-75
2022/08/17 05:48:36;;;;;;;7.53;3.80;;;22.20;55.40;;;;;;5033474;28;20026;-80
2022/08/17 05:51:10;;;;;;;4.70;3.75;;;22.30;55.30;;;;;;5033576;28;20096;-75
2022/08/17 05:54:15;;;;;;;4.97;3.80;;;22.40;55.10;;;;;;5033638;28;20049;-80
2022/08/17 05:57:22;;;;;;;4.10;3.47;;;22.50;55.00;;;;;;5040537;28;20096;-75
2022/08/17 06:00:01;;;;;;;5.32;3.65;;;22.50;54.80;;;;;;4992727;28;20034;-74
2022/08/17 06:02:47;;;;;;;8.00;3.67;;;22.60;54.80;;;;;;5019301;28;20088;-77
2022/08/17 06:05:40;;;;;;;14.63;4.00;;;22.60;54.70;;;;;;5030784;28;20363;-77
2022/08/17 06:08:38;;;;;;;7.05;4.38;;;22.70;54.80;;;;;;5032372;28;20026;-73
2022/08/17 06:11:34;;;;;;;7.88;3.92;;;22.70;54.70;;;;;;5016613;28;20435;-79
2022/08/17 06:14:08;;;;;;;5.45;4.03;;;22.80;54.50;;;;;;5031127;28;20065;-75
2022/08/17 06:16:38;;;;;;;7.35;4.35;;;22.90;54.50;;;;;;5014695;28;20407;-81
2022/08/17 06:19:18;;;;;;;5.60;3.85;;;22.90;54.40;;;;;;5033229;28;20068;-77
2022/08/17 06:21:48;;;;;;;5.30;4.10;;;23.00;54.50;;;;;;5032413;28;20841;-79
2022/08/17 06:24:22;;;;;;;5.38;3.80;;;23.00;54.50;;;;;;5033117;28;20017;-78
2022/08/17 06:26:49;;;;;;;6.60;4.25;;;23.10;54.50;;;;;;5047284;28;20029;-76
2022/08/17 06:29:25;;;;;;;6.28;3.90;;;23.10;54.20;;;;;;5033797;28;20445;-75
2022/08/17 06:31:51;;;;;;;6.43;4.20;;;23.20;54.10;;;;;;5032630;28;20060;-76
2022/08/17 06:34:20;;;;;;;6.82;4.20;;;23.20;53.90;;;;;;5031537;28;20103;-74
2022/08/17 06:37:15;;;;;;;5.82;4.10;;;23.30;53.80;;;;;;5032891;28;20378;-75
2022/08/17 06:40:04;;;;;;;7.00;4.10;;;23.40;53.60;;;;;;4996195;28;20042;-79
2022/08/17 06:42:54;;;;;;;6.30;4.60;;;23.50;53.50;;;;;;4987890;28;20038;-77
2022/08/17 06:45:30;;;;;;;8.68;5.20;;;23.60;53.10;;;;;;5031675;28;20025;-73
2022/08/17 06:48:08;;;;;;;13.48;5.57;;;23.70;52.70;;;;;;5031841;28;20060;-73
2022/08/17 06:50:42;;;;;;;15.95;5.97;;;23.80;52.70;;;;;;5032130;28;20056;-73
2022/08/17 06:53:26;;;;;;;11.90;5.00;;;23.80;52.60;;;;;;5032768;28;20060;-73
2022/08/17 06:56:05;;;;;;;17.35;5.38;;;23.90;52.80;;;;;;5038545;28;20022;-73
2022/08/17 06:58:32;;;;;;;16.58;7.68;;;24.00;52.90;;;;;;5052548;28;20035;-73
2022/08/17 07:01:07;;;;;;;15.13;8.25;;;24.00;52.50;;;;;;5052467;28;20479;-74
2022/08/17 07:03:54;;;;;;;20.25;10.20;;;24.10;52.60;;;;;;5050583;28;20033;-73
2022/08/17 07:06:23;;;;;;;24.42;10.50;;;24.10;51.90;;;;;;5032650;28;20605;-73
2022/08/17 07:09:00;;;;;;;18.85;10.52;;;24.20;51.60;;;;;;5032732;28;20030;-73
2022/08/17 07:11:51;;;;;;;23.70;10.77;;;24.30;51.60;;;;;;5032531;28;20021;-73
2022/08/17 07:14:36;;;;;;;21.30;11.95;;;24.30;51.40;;;;;;5032470;28;20014;-73
2022/08/17 07:17:23;;;;;;;18.13;10.45;;;24.40;50.80;;;;;;5032527;28;20102;-74
2022/08/17 07:19:53;;;;;;;16.40;10.23;;;24.50;51.00;;;;;;5032232;28;20022;-74
2022/08/17 07:22:32;;;;;;;28.60;11.63;;;24.60;50.70;;;;;;5014844;28;20061;-73
2022/08/17 07:25:02;;;;;;;17.40;9.57;;;24.70;50.40;;;;;;5030971;28;20471;-73
2022/08/17 07:27:39;;;;;;;19.42;8.95;;;24.70;50.00;;;;;;5051866;28;20036;-73
2022/08/17 07:30:07;;;;;;;14.40;7.95;;;24.80;50.20;;;;;;5052347;28;20025;-73
2022/08/17 07:32:40;;;;;;;16.00;7.47;;;24.90;50.10;;;;;;5052243;28;20391;-73
2022/08/17 07:35:30;;;;;;;19.85;6.70;;;24.90;49.70;;;;;;5052297;28;20032;-73
2022/08/17 07:38:10;;;;;;;19.25;7.35;;;25.00;48.80;;;;;;5052092;28;20119;-73
2022/08/17 07:41:11;;;;;;;14.40;6.03;;;25.20;48.90;;;;;;5050220;28;20029;-73
2022/08/17 07:43:39;;;;;;;15.05;7.18;;;25.20;49.00;;;;;;5052535;28;20047;-74
2022/08/17 07:49:07;;;;;;;21.58;8.00;;;25.50;48.70;;;;;;5052038;28;20040;-73
2022/08/17 07:51:58;;;;;;;15.20;8.13;;;25.60;49.00;;;;;;5051901;28;20021;-73
2022/08/17 07:54:36;;;;;;;12.75;6.18;;;25.70;48.70;;;;;;5044542;28;20103;-73
2022/08/17 07:57:14;;;;;;;9.18;5.97;;;25.80;48.60;;;;;;5036129;28;20510;-73
2022/08/17 08:00:04;;;;;;;10.85;5.18;;;25.90;47.90;;;;;;5032077;28;20026;-74
2022/08/17 08:02:33;;;;;;;13.57;4.28;;;26.00;47.90;;;;;;5035485;28;20419;-73
2022/08/17 08:05:03;;;;;;;9.48;4.20;;;26.10;47.80;;;;;;5017834;28;20028;-73
2022/08/17 08:07:49;;;;;;;5.57;3.65;;;26.20;47.00;;;;;;5035700;28;20506;-73
2022/08/17 08:10:28;;;;;;;8.63;3.90;;;26.30;46.80;;;;;;5017959;28;20037;-73
2022/08/17 08:13:20;;;;;;;9.60;3.88;;;26.40;46.80;;;;;;5035612;28;20101;-73
2022/08/17 08:15:52;;;;;;;7.47;3.92;;;26.60;46.60;;;;;;5032557;28;20040;-73
2022/08/17 08:18:29;;;;;;;9.90;3.83;;;26.60;45.50;;;;;;5035539;28;20029;-74
2022/08/17 08:21:10;;;;;;;4.07;3.15;;;26.70;45.30;;;;;;5033961;28;20407;-71
2022/08/17 08:23:45;;;;;;;5.88;4.03;;;26.80;45.30;;;;;;5035374;28;20139;-73
2022/08/17 08:26:35;;;;;;;6.00;3.92;;;26.90;45.00;;;;;;5042829;28;20053;-73
2022/08/17 08:29:13;;;;;;;6.10;3.55;;;27.00;45.10;;;;;;5054636;28;20482;-73
2022/08/17 08:32:04;;;;;;;10.38;4.43;;;27.20;44.60;;;;;;5054987;28;20021;-74
2022/08/17 08:34:57;;;;;;;6.95;4.47;;;27.30;44.90;;;;;;5055093;28;20021;-73
2022/08/17 08:37:54;;;;;;;10.40;6.43;;;27.30;44.80;;;;;;5055055;28;20019;-74
2022/08/17 08:40:41;;;;;;;11.15;6.28;;;27.50;44.20;;;;;;5029824;28;20513;-74
2022/08/17 08:43:28;;;;;;;7.03;4.60;;;27.60;43.80;;;;;;5054840;28;20032;-73
2022/08/17 08:46:06;;;;;;;13.45;4.57;;;27.60;43.80;;;;;;5054871;28;20070;-73
2022/08/17 08:48:54;;;;;;;13.88;4.22;;;27.70;43.70;;;;;;5054785;28;20154;-73
2022/08/17 08:51:45;;;;;;;8.85;4.40;;;27.80;43.80;;;;;;5054622;28;20017;-73
2022/08/17 08:54:33;;;;;;;9.45;4.25;;;27.90;43.80;;;;;;5054526;28;20557;-74
2022/08/17 08:57:26;;;;;;;10.93;4.65;;;28.00;43.60;;;;;;5039768;28;20052;-71
2022/08/17 09:00:16;;;;;;;8.25;5.57;;;28.10;43.60;;;;;;5034591;28;20025;-74
2022/08/17 09:03:08;;;;;;;10.82;4.32;;;28.20;42.70;;;;;;5034480;28;20030;-72
2022/08/17 09:06:08;;;;;;;6.53;4.55;;;28.30;42.70;;;;;;5034601;28;20029;-72
2022/08/17 09:08:43;;;;;;;8.13;4.72;;;28.30;43.20;;;;;;5034072;28;20597;-72
2022/08/17 09:11:23;;;;;;;17.17;4.18;;;28.40;42.70;;;;;;5034268;28;20079;-72
2022/08/17 09:14:08;;;;;;;6.68;3.90;;;28.50;41.80;;;;;;5034058;28;20060;-72
2022/08/17 09:16:41;;;;;;;6.30;3.30;;;28.60;41.90;;;;;;5034334;28;20022;-71
2022/08/17 09:19:29;;;;;;;7.35;4.30;;;28.60;42.10;;;;;;5034506;28;20372;-72
2022/08/17 09:22:10;;;;;;;6.03;4.03;;;28.70;42.60;;;;;;5034105;28;20060;-72
2022/08/17 09:24:42;;;;;;;9.02;4.03;;;28.80;42.10;;;;;;5034219;28;20045;-72
2022/08/17 09:27:19;;;;;;;8.18;4.80;;;28.90;41.60;;;;;;5049057;28;20029;-72
2022/08/17 09:29:49;;;;;;;8.35;2.85;;;29.00;41.80;;;;;;5036038;28;20056;-72
2022/08/17 09:32:21;;;;;;;8.48;4.45;;;29.10;41.10;;;;;;5054011;28;20017;-72
2022/08/17 09:34:53;;;;;;;7.88;3.72;;;29.20;40.70;;;;;;5035945;28;20021;-72
2022/08/17 09:37:34;;;;;;;11.25;3.83;;;29.20;40.60;;;;;;5053940;28;20025;-72
2022/08/17 09:40:10;;;;;;;7.88;4.65;;;29.30;40.90;;;;;;5053729;28;20082;-72
2022/08/17 09:42:47;;;;;;;7.20;3.88;;;29.40;41.10;;;;;;5053746;28;20029;-72
2022/08/17 09:45:31;;;;;;;5.10;3.58;;;29.50;40.50;;;;;;5053665;28;20029;-72
2022/08/17 09:48:16;;;;;;;4.72;3.13;;;29.60;41.00;;;;;;5053454;28;20029;-72
2022/08/17 09:50:54;;;;;;;4.80;3.13;;;29.70;40.70;;;;;;5052332;28;20427;-72
2022/08/17 09:53:21;;;;;;;5.47;3.00;;;29.70;40.30;;;;;;5053559;28;20021;-72
2022/08/17 09:56:16;;;;;;;7.75;3.30;;;29.80;39.90;;;;;;5049493;28;20018;-72
2022/08/17 09:59:04;;;;;;;5.25;3.33;;;29.90;39.90;;;;;;5024370;28;20041;-72
2022/08/17 10:01:44;;;;;;;5.55;3.45;;;29.90;39.30;;;;;;5015742;28;20025;-72
2022/08/17 10:04:37;;;;;;;6.82;3.65;;;30.00;38.90;;;;;;5015600;28;20037;-72
2022/08/17 10:07:22;;;;;;;5.20;3.67;;;30.10;38.40;;;;;;5033334;28;20075;-72
2022/08/17 10:10:02;;;;;;;8.50;3.40;;;30.10;37.40;;;;;;5032987;28;20018;-72
2022/08/17 10:12:47;;;;;;;10.00;3.33;;;30.20;37.60;;;;;;5031830;28;20131;-72
2022/08/17 10:15:48;;;;;;;4.85;3.05;;;30.30;37.60;;;;;;5033129;28;20576;-72
2022/08/17 10:18:34;;;;;;;10.10;3.08;;;30.40;37.00;;;;;;5031871;28;20479;-72
2022/08/17 10:27:09;;;;;;;5.63;3.10;;;30.60;36.00;;;;;;5006572;28;20040;-72
2022/08/17 10:29:52;;;;;;;5.60;2.80;;;30.70;35.50;;;;;;5013289;28;20117;-72
2022/08/17 10:32:58;;;;;;;6.67;2.90;;;30.80;35.70;;;;;;5013291;28;20030;-72
2022/08/17 10:36:03;;;;;;;6.68;2.33;;;30.80;36.00;;;;;;5013258;28;20519;-72
2022/08/17 10:38:45;;;;;;;3.85;2.28;;;30.90;35.80;;;;;;4974978;28;20034;-72
2022/08/17 10:41:17;;;;;;;5.03;2.40;;;31.00;35.00;;;;;;4991239;28;20060;-72
2022/08/17 10:43:47;;;;;;;4.20;2.40;;;31.00;35.00;;;;;;4991320;28;20030;-72
2022/08/17 10:46:28;;;;;;;3.33;2.20;;;31.10;34.80;;;;;;4991094;28;20061;-72
2022/08/17 10:49:22;;;;;;;8.63;2.80;;;31.20;34.60;;;;;;4991219;28;20030;-72
2022/08/17 10:51:53;;;;;;;6.13;2.70;;;31.30;33.50;;;;;;4989632;28;20097;-72
2022/08/17 10:54:24;;;;;;;4.22;2.50;;;31.30;33.60;;;;;;4990784;28;20022;-72
2022/08/17 10:56:52;;;;;;;4.35;2.35;;;31.40;33.30;;;;;;4990447;28;20437;-72
2022/08/17 10:59:36;;;;;;;3.30;2.20;;;31.40;33.00;;;;;;4977726;28;20047;-72
2022/08/17 11:02:13;;;;;;;3.97;2.13;;;31.50;33.50;;;;;;4971972;28;20030;-73
2022/08/17 11:04:48;;;;;;;2.97;2.30;;;31.50;32.60;;;;;;4971585;28;20038;-73
2022/08/17 11:07:32;;;;;;;4.20;2.60;;;31.50;32.60;;;;;;4971502;28;20513;-73
2022/08/17 11:10:12;;;;;;;3.38;2.25;;;31.60;33.00;;;;;;4971573;28;20042;-74
2022/08/17 11:12:59;;;;;;;5.53;2.40;;;31.60;32.00;;;;;;4980684;28;20114;-73
2022/08/17 11:15:44;;;;;;;3.15;1.95;;;31.70;32.60;;;;;;4973694;28;20019;-73
2022/08/17 11:18:38;;;;;;;2.88;2.30;;;31.70;32.50;;;;;;4974046;28;20034;-73
2022/08/17 11:21:39;;;;;;;6.68;2.03;;;31.80;32.30;;;;;;4994851;28;20042;-73
2022/08/17 11:24:30;;;;;;;3.25;2.25;;;31.80;32.10;;;;;;5012729;28;20029;-73
2022/08/17 11:27:16;;;;;;;3.60;2.22;;;31.80;32.00;;;;;;5037336;28;20029;-73
2022/08/17 11:29:51;;;;;;;4.90;2.10;;;31.90;32.10;;;;;;5052224;28;20064;-73
2022/08/17 11:32:43;;;;;;;2.75;2.17;;;32.00;32.00;;;;;;5052201;28;20013;-73
2022/08/17 11:35:19;;;;;;;5.22;2.08;;;32.00;31.20;;;;;;5053060;28;20022;-73
2022/08/17 11:38:09;;;;;;;4.97;2.20;;;32.00;30.50;;;;;;5056151;28;20048;-73
2022/08/17 11:41:09;;;;;;;2.92;2.08;;;32.10;31.20;;;;;;5056097;28;20515;-73
2022/08/17 11:43:46;;;;;;;6.28;2.00;;;32.10;31.30;;;;;;5038209;28;20079;-73
2022/08/17 11:52:41;;;;;;;7.07;2.30;;;32.20;30.40;;;;;;5055701;28;20032;-73
2022/08/17 11:55:27;;;;;;;4.63;2.30;;;32.20;30.30;;;;;;5054445;28;20112;-73
2022/08/17 11:58:02;;;;;;;5.30;2.10;;;32.40;30.20;;;;;;5036654;28;20483;-73
2022/08/17 12:01:02;;;;;;;6.22;2.08;;;32.30;29.40;;;;;;5035664;28;20026;-72
2022/08/17 12:03:31;;;;;;;6.55;2.00;;;32.40;30.00;;;;;;5024463;28;20034;-72
2022/08/17 12:06:09;;;;;;;6.38;2.30;;;32.40;29.10;;;;;;5035399;28;20021;-72
2022/08/17 12:08:42;;;;;;;12.52;3.42;;;32.50;29.50;;;;;;5035340;28;20037;-72
2022/08/17 12:11:37;;;;;;;8.00;2.22;;;32.50;28.80;;;;;;5035519;28;20028;-72
2022/08/17 12:14:05;;;;;;;3.28;2.17;;;32.60;28.70;;;;;;5035462;28;20378;-72
2022/08/17 12:16:31;;;;;;;2.33;1.92;;;32.60;28.40;;;;;;5017728;28;20022;-72
2022/08/17 12:19:01;;;;;;;2.55;1.85;;;32.70;28.50;;;;;;5035395;28;20407;-72
2022/08/17 12:21:53;;;;;;;5.85;1.92;;;32.70;28.40;;;;;;5035139;28;20053;-72
2022/08/17 12:24:40;;;;;;;2.40;2.00;;;32.80;28.50;;;;;;5034075;28;20025;-72
2022/08/17 12:27:08;;;;;;;2.42;1.98;;;32.90;28.90;;;;;;5047553;28;20036;-72
2022/08/17 12:29:35;;;;;;;2.70;1.85;;;32.90;27.70;;;;;;5055035;28;20032;-72
2022/08/17 12:32:02;;;;;;;6.22;2.22;;;33.00;27.30;;;;;;5055067;28;20028;-72
2022/08/17 12:34:37;;;;;;;2.60;2.10;;;33.00;27.10;;;;;;5054963;28;20374;-72
2022/08/17 12:37:32;;;;;;;4.75;2.40;;;33.00;26.80;;;;;;5055034;28;20017;-72
2022/08/17 12:40:00;;;;;;;2.88;1.95;;;33.10;27.70;;;;;;5054920;28;20415;-73
2022/08/17 12:42:36;;;;;;;3.63;1.80;;;33.20;27.90;;;;;;5054823;28;20543;-72
2022/08/17 12:45:06;;;;;;;5.65;2.13;;;33.30;27.20;;;;;;5037027;28;20029;-72
2022/08/17 12:47:36;;;;;;;4.38;2.05;;;33.40;27.70;;;;;;5053529;28;20471;-72
2022/08/17 12:50:12;;;;;;;2.22;1.98;;;33.50;27.90;;;;;;5054806;28;20029;-72
2022/08/17 12:52:40;;;;;;;3.30;2.10;;;33.60;27.80;;;;;;5054789;28;20021;-72
2022/08/17 12:55:13;;;;;;;3.35;2.38;;;33.70;27.30;;;;;;5052882;28;20508;-72
2022/08/17 12:57:47;;;;;;;2.80;2.17;;;33.70;27.80;;;;;;5051583;28;20483;-72
2022/08/17 13:00:19;;;;;;;;;;;33.80;27.60;;;;;;5037257;28;20024;-72
2022/08/17 13:03:02;;;;;;;6.20;3.03;;;34.00;28.50;;;;;;5054486;28;20366;-72
2022/08/17 13:05:36;;;;;;;3.40;2.10;;;34.10;27.40;;;;;;5054543;28;20124;-72
2022/08/17 13:08:23;;;;;;;3.50;1.95;;;34.20;26.80;;;;;;5054322;28;20027;-72
2022/08/17 13:11:08;;;;;;;5.95;2.60;;;34.40;26.80;;;;;;5054456;28;20025;-73
2022/08/17 13:13:37;;;;;;;4.70;2.38;;;34.40;26.70;;;;;;5054372;28;20021;-72
2022/08/17 13:16:13;;;;;;;3.30;2.05;;;34.50;25.80;;;;;;5054350;28;20063;-73
2022/08/17 13:19:03;;;;;;;4.32;2.30;;;34.60;25.90;;;;;;5054148;28;20021;-72
2022/08/17 13:21:31;;;;;;;3.92;2.33;;;34.70;25.40;;;;;;5053760;28;20516;-72
2022/08/17 13:24:10;;;;;;;3.45;2.22;;;34.80;25.10;;;;;;5054086;28;20021;-72
2022/08/17 13:27:07;;;;;;;2.78;2.47;;;34.80;25.30;;;;;;5044361;28;20040;-72
2022/08/17 13:29:45;;;;;;;3.90;2.40;;;34.90;25.90;;;;;;5011697;28;20041;-72
2022/08/17 13:32:15;;;;;;;5.50;2.72;;;35.00;25.10;;;;;;5034058;28;20018;-73
2022/08/17 13:34:46;;;;;;;2.53;2.15;;;35.10;25.40;;;;;;5034054;28;20079;-72
2022/08/17 13:37:31;;;;;;;11.40;2.60;;;35.20;25.70;;;;;;5034001;28;20443;-72
2022/08/17 13:40:20;;;;;;;3.72;2.33;;;35.30;25.40;;;;;;5033966;28;20021;-72
2022/08/17 13:42:48;;;;;;;4.10;2.25;;;35.50;25.70;;;;;;5005535;28;20037;-72
2022/08/17 13:45:29;;;;;;;3.13;2.03;;;35.60;25.10;;;;;;5033793;28;20021;-72
2022/08/17 13:48:16;;;;;;;2.78;2.05;;;35.60;25.40;;;;;;5033661;28;20021;-72
2022/08/17 13:50:50;;;;;;;6.40;2.75;;;35.80;25.40;;;;;;5015917;28;20026;-72
2022/08/17 13:53:20;;;;;;;3.80;2.20;;;35.90;25.20;;;;;;5033631;28;20022;-72
2022/08/17 13:55:57;;;;;;;6.28;2.63;;;36.10;25.10;;;;;;5033841;28;20021;-71